sensor_id;sensor_type;location;lat;lon;timestamp;temperature;humidity
2024;DHT22;1016;48.770;9.154;2022-08-07T00:01:11;21.30;55.80
2024;DHT22;1016;48.770;9.154;2022-08-07T00:03:36;21.30;55.60
2024;DHT22;1016;48.770;9.154;2022-08-07T00:06:03;21.30;55.80
2024;DHT22;1016;48.770;9.154;2022-08-07T00:08:28;21.20;56.60
2024;DHT22;1016;48.770;9.154;2022-08-07T00:10:54;21.20;56.00
2024;DHT22;1016;48.770;9.154;2022-08-07T00:13:21;21.20;56.10
2024;DHT22;1016;48.770;9.154;2022-08-07T00:15:47;21.10;56.10
2024;DHT22;1016;48.770;9.154;2022-08-07T00:18:14;21.10;55.80
2024;DHT22;1016;48.770;9.154;2022-08-07T00:20:41;21.00;56.20
2024;DHT22;1016;48.770;9.154;2022-08-07T00:25:32;21.10;55.70
2024;DHT22;1016;48.770;9.154;2022-08-07T00:27:58;21.10;56.00
2024;DHT22;1016;48.770;9.154;2022-08-07T00:30:24;21.10;56.00
2024;DHT22;1016;48.770;9.154;2022-08-07T00:32:50;21.10;56.20
2024;DHT22;1016;48.770;9.154;2022-08-07T00:35:19;21.10;56.30
2024;DHT22;1016;48.770;9.154;2022-08-07T00:37:45;21.10;56.30
2024;DHT22;1016;48.770;9.154;2022-08-07T00:40:12;21.10;56.20
2024;DHT22;1016;48.770;9.154;2022-08-07T00:42:37;21.00;56.90
2024;DHT22;1016;48.770;9.154;2022-08-07T00:45:04;21.00;56.50
2024;DHT22;1016;48.770;9.154;2022-08-07T00:47:30;21.00;56.30
2024;DHT22;1016;48.770;9.154;2022-08-07T00:49:56;21.00;56.30
2024;DHT22;1016;48.770;9.154;2022-08-07T00:52:21;21.00;56.40
2024;DHT22;1016;48.770;9.154;2022-08-07T00:54:48;21.00;56.50
2024;DHT22;1016;48.770;9.154;2022-08-07T00:57:15;20.90;56.30
2024;DHT22;1016;48.770;9.154;2022-08-07T00:59:41;20.90;56.50
2024;DHT22;1016;48.770;9.154;2022-08-07T01:02:08;20.90;56.70
2024;DHT22;1016;48.770;9.154;2022-08-07T01:04:33;20.90;56.70
2024;DHT22;1016;48.770;9.154;2022-08-07T01:06:59;20.80;56.60
2024;DHT22;1016;48.770;9.154;2022-08-07T01:09:26;20.80;56.80
2024;DHT22;1016;48.770;9.154;2022-08-07T01:11:52;20.80;56.90
2024;DHT22;1016;48.770;9.154;2022-08-07T01:14:23;20.90;57.30
2024;DHT22;1016;48.770;9.154;2022-08-07T01:16:49;20.80;57.50
2024;DHT22;1016;48.770;9.154;2022-08-07T01:19:19;20.80;57.40
2024;DHT22;1016;48.770;9.154;2022-08-07T01:21:48;20.80;57.40
2024;DHT22;1016;48.770;9.154;2022-08-07T01:24:15;20.80;57.30
2024;DHT22;1016;48.770;9.154;2022-08-07T01:26:41;20.80;57.30
2024;DHT22;1016;48.770;9.154;2022-08-07T01:29:07;20.80;57.40
2024;DHT22;1016;48.770;9.154;2022-08-07T01:31:33;20.80;57.60
2024;DHT22;1016;48.770;9.154;2022-08-07T01:34:00;20.60;57.30
2024;DHT22;1016;48.770;9.154;2022-08-07T01:36:27;20.70;57.90
2024;DHT22;1016;48.770;9.154;2022-08-07T01:38:53;20.70;57.90
2024;DHT22;1016;48.770;9.154;2022-08-07T01:41:19;20.70;57.80
2024;DHT22;1016;48.770;9.154;2022-08-07T01:43:46;20.70;57.90
2024;DHT22;1016;48.770;9.154;2022-08-07T01:46:13;20.60;58.00
2024;DHT22;1016;48.770;9.154;2022-08-07T01:48:43;20.60;58.70
2024;DHT22;1016;48.770;9.154;2022-08-07T01:51:20;20.60;58.30
2024;DHT22;1016;48.770;9.154;2022-08-07T01:53:50;20.60;58.50
2024;DHT22;1016;48.770;9.154;2022-08-07T01:56:25;20.50;58.40
2024;DHT22;1016;48.770;9.154;2022-08-07T01:59:00;20.60;58.60
2024;DHT22;1016;48.770;9.154;2022-08-07T02:01:30;20.60;58.80
2024;DHT22;1016;48.770;9.154;2022-08-07T02:04:02;20.60;58.90
2024;DHT22;1016;48.770;9.154;2022-08-07T02:06:33;20.60;58.90
2024;DHT22;1016;48.770;9.154;2022-08-07T02:09:03;20.60;58.80
2024;DHT22;1016;48.770;9.154;2022-08-07T02:11:30;20.60;58.90
2024;DHT22;1016;48.770;9.154;2022-08-07T02:13:58;20.50;58.80
2024;DHT22;1016;48.770;9.154;2022-08-07T02:16:25;20.50;59.00
2024;DHT22;1016;48.770;9.154;2022-08-07T02:18:51;20.50;59.00
2024;DHT22;1016;48.770;9.154;2022-08-07T02:21:17;20.50;59.20
2024;DHT22;1016;48.770;9.154;2022-08-07T02:23:44;20.40;59.30
2024;DHT22;1016;48.770;9.154;2022-08-07T02:26:10;20.50;59.30
2024;DHT22;1016;48.770;9.154;2022-08-07T02:28:37;20.50;59.50
2024;DHT22;1016;48.770;9.154;2022-08-07T02:31:05;20.50;59.40
2024;DHT22;1016;48.770;9.154;2022-08-07T02:33:33;20.60;59.50
2024;DHT22;1016;48.770;9.154;2022-08-07T02:36:01;20.40;60.00
2024;DHT22;1016;48.770;9.154;2022-08-07T02:38:31;20.40;60.10
2024;DHT22;1016;48.770;9.154;2022-08-07T02:40:58;20.40;59.70
2024;DHT22;1016;48.770;9.154;2022-08-07T02:43:25;20.40;59.80
2024;DHT22;1016;48.770;9.154;2022-08-07T02:45:52;20.40;59.80
2024;DHT22;1016;48.770;9.154;2022-08-07T02:48:19;20.40;59.90
2024;DHT22;1016;48.770;9.154;2022-08-07T02:50:47;20.40;60.10
2024;DHT22;1016;48.770;9.154;2022-08-07T02:53:20;20.40;60.40
2024;DHT22;1016;48.770;9.154;2022-08-07T02:55:47;20.30;60.30
2024;DHT22;1016;48.770;9.154;2022-08-07T02:58:18;20.30;60.40
2024;DHT22;1016;48.770;9.154;2022-08-07T03:00:51;20.30;60.50
2024;DHT22;1016;48.770;9.154;2022-08-07T03:03:18;20.30;60.60
2024;DHT22;1016;48.770;9.154;2022-08-07T03:05:45;20.20;60.60
2024;DHT22;1016;48.770;9.154;2022-08-07T03:08:11;20.20;60.80
2024;DHT22;1016;48.770;9.154;2022-08-07T03:10:38;20.20;61.10
2024;DHT22;1016;48.770;9.154;2022-08-07T03:13:04;20.10;61.10
2024;DHT22;1016;48.770;9.154;2022-08-07T03:15:30;20.10;61.20
2024;DHT22;1016;48.770;9.154;2022-08-07T03:17:56;20.10;61.30
2024;DHT22;1016;48.770;9.154;2022-08-07T03:20:23;20.10;61.60
2024;DHT22;1016;48.770;9.154;2022-08-07T03:22:49;20.10;61.70
2024;DHT22;1016;48.770;9.154;2022-08-07T03:25:17;20.00;61.80
2024;DHT22;1016;48.770;9.154;2022-08-07T03:27:44;20.10;62.30
2024;DHT22;1016;48.770;9.154;2022-08-07T03:30:10;20.10;62.00
2024;DHT22;1016;48.770;9.154;2022-08-07T03:32:38;20.00;62.10
2024;DHT22;1016;48.770;9.154;2022-08-07T03:35:08;20.00;62.10
2024;DHT22;1016;48.770;9.154;2022-08-07T03:37:35;20.00;62.10
2024;DHT22;1016;48.770;9.154;2022-08-07T03:40:04;20.00;62.40
2024;DHT22;1016;48.770;9.154;2022-08-07T03:42:32;20.00;62.60
2024;DHT22;1016;48.770;9.154;2022-08-07T03:44:58;19.90;63.00
2024;DHT22;1016;48.770;9.154;2022-08-07T03:47:28;19.90;63.30
2024;DHT22;1016;48.770;9.154;2022-08-07T03:49:56;19.80;63.60
2024;DHT22;1016;48.770;9.154;2022-08-07T03:52:25;19.90;63.70
2024;DHT22;1016;48.770;9.154;2022-08-07T03:54:53;19.90;63.70
2024;DHT22;1016;48.770;9.154;2022-08-07T03:57:19;19.90;63.80
2024;DHT22;1016;48.770;9.154;2022-08-07T03:59:45;19.90;64.00
2024;DHT22;1016;48.770;9.154;2022-08-07T04:02:11;19.80;64.40
2024;DHT22;1016;48.770;9.154;2022-08-07T04:04:36;19.80;64.70
2024;DHT22;1016;48.770;9.154;2022-08-07T04:07:02;19.80;64.80
2024;DHT22;1016;48.770;9.154;2022-08-07T04:09:29;19.90;64.90
2024;DHT22;1016;48.770;9.154;2022-08-07T04:11:55;19.90;65.00
2024;DHT22;1016;48.770;9.154;2022-08-07T04:14:22;19.90;65.10
2024;DHT22;1016;48.770;9.154;2022-08-07T04:16:48;19.80;65.30
2024;DHT22;1016;48.770;9.154;2022-08-07T04:19:14;19.80;65.50
2024;DHT22;1016;48.770;9.154;2022-08-07T04:21:40;19.80;65.70
2024;DHT22;1016;48.770;9.154;2022-08-07T04:24:07;20.00;66.20
2024;DHT22;1016;48.770;9.154;2022-08-07T04:26:38;19.70;66.00
2024;DHT22;1016;48.770;9.154;2022-08-07T04:29:07;19.70;66.20
2024;DHT22;1016;48.770;9.154;2022-08-07T04:31:38;19.70;66.40
2024;DHT22;1016;48.770;9.154;2022-08-07T04:34:08;19.70;66.40
2024;DHT22;1016;48.770;9.154;2022-08-07T04:36:34;19.80;66.70
2024;DHT22;1016;48.770;9.154;2022-08-07T04:39:01;19.80;66.80
2024;DHT22;1016;48.770;9.154;2022-08-07T04:41:26;19.80;67.00
2024;DHT22;1016;48.770;9.154;2022-08-07T04:43:53;19.80;67.20
2024;DHT22;1016;48.770;9.154;2022-08-07T04:46:35;19.80;67.30
2024;DHT22;1016;48.770;9.154;2022-08-07T04:49:23;19.90;67.60
2024;DHT22;1016;48.770;9.154;2022-08-07T04:57:31;19.90;68.10
2024;DHT22;1016;48.770;9.154;2022-08-07T05:00:14;19.90;68.20
2024;DHT22;1016;48.770;9.154;2022-08-07T05:05:25;19.90;68.50
2024;DHT22;1016;48.770;9.154;2022-08-07T05:07:59;19.90;68.80
2024;DHT22;1016;48.770;9.154;2022-08-07T05:10:30;19.90;68.90
2024;DHT22;1016;48.770;9.154;2022-08-07T05:13:10;19.90;69.30
2024;DHT22;1016;48.770;9.154;2022-08-07T05:15:41;20.00;69.50
2024;DHT22;1016;48.770;9.154;2022-08-07T05:18:19;19.90;69.40
2024;DHT22;1016;48.770;9.154;2022-08-07T05:20:52;19.90;69.80
2024;DHT22;1016;48.770;9.154;2022-08-07T05:23:31;20.00;70.20
2024;DHT22;1016;48.770;9.154;2022-08-07T05:26:00;20.00;70.80
2024;DHT22;1016;48.770;9.154;2022-08-07T05:28:28;20.00;70.80
2024;DHT22;1016;48.770;9.154;2022-08-07T05:30:56;20.00;71.10
2024;DHT22;1016;48.770;9.154;2022-08-07T05:33:23;20.10;71.90
2024;DHT22;1016;48.770;9.154;2022-08-07T05:35:50;20.10;72.60
2024;DHT22;1016;48.770;9.154;2022-08-07T05:38:19;20.10;73.20
2024;DHT22;1016;48.770;9.154;2022-08-07T05:40:46;20.20;74.10
2024;DHT22;1016;48.770;9.154;2022-08-07T05:43:13;20.20;75.00
2024;DHT22;1016;48.770;9.154;2022-08-07T05:45:41;20.20;75.80
2024;DHT22;1016;48.770;9.154;2022-08-07T05:48:07;20.30;76.60
2024;DHT22;1016;48.770;9.154;2022-08-07T05:50:33;20.20;76.70
2024;DHT22;1016;48.770;9.154;2022-08-07T05:53:01;20.20;77.30
2024;DHT22;1016;48.770;9.154;2022-08-07T05:55:27;20.30;78.40
2024;DHT22;1016;48.770;9.154;2022-08-07T05:57:53;20.30;78.60
2024;DHT22;1016;48.770;9.154;2022-08-07T06:00:19;20.30;78.80
2024;DHT22;1016;48.770;9.154;2022-08-07T06:02:47;20.30;79.30
2024;DHT22;1016;48.770;9.154;2022-08-07T06:05:14;20.40;80.30
2024;DHT22;1016;48.770;9.154;2022-08-07T06:07:40;20.40;80.80
2024;DHT22;1016;48.770;9.154;2022-08-07T06:10:08;20.40;81.30
2024;DHT22;1016;48.770;9.154;2022-08-07T06:12:34;20.40;81.70
2024;DHT22;1016;48.770;9.154;2022-08-07T06:15:00;20.40;82.00
2024;DHT22;1016;48.770;9.154;2022-08-07T06:17:26;20.50;82.60
2024;DHT22;1016;48.770;9.154;2022-08-07T06:19:52;20.50;82.80
2024;DHT22;1016;48.770;9.154;2022-08-07T06:22:18;20.50;83.10
2024;DHT22;1016;48.770;9.154;2022-08-07T06:24:45;20.70;83.90
2024;DHT22;1016;48.770;9.154;2022-08-07T06:27:19;20.70;84.00
2024;DHT22;1016;48.770;9.154;2022-08-07T06:29:45;20.90;84.70
2024;DHT22;1016;48.770;9.154;2022-08-07T06:32:10;20.80;84.80
2024;DHT22;1016;48.770;9.154;2022-08-07T06:34:36;20.90;86.30
2024;DHT22;1016;48.770;9.154;2022-08-07T06:37:01;20.80;85.80
2024;DHT22;1016;48.770;9.154;2022-08-07T06:39:27;20.90;86.40
2024;DHT22;1016;48.770;9.154;2022-08-07T06:45:12;21.00;87.10
2024;DHT22;1016;48.770;9.154;2022-08-07T06:47:38;21.10;88.00
2024;DHT22;1016;48.770;9.154;2022-08-07T06:50:05;21.10;88.30
2024;DHT22;1016;48.770;9.154;2022-08-07T06:52:35;21.10;88.80
2024;DHT22;1016;48.770;9.154;2022-08-07T06:55:12;21.20;89.70
2024;DHT22;1016;48.770;9.154;2022-08-07T06:57:40;21.30;90.10
2024;DHT22;1016;48.770;9.154;2022-08-07T07:00:07;21.30;90.20
2024;DHT22;1016;48.770;9.154;2022-08-07T07:02:33;21.30;90.60
2024;DHT22;1016;48.770;9.154;2022-08-07T07:05:01;21.40;90.80
2024;DHT22;1016;48.770;9.154;2022-08-07T07:07:26;21.40;90.90
2024;DHT22;1016;48.770;9.154;2022-08-07T07:09:52;21.50;91.20
2024;DHT22;1016;48.770;9.154;2022-08-07T07:12:21;21.50;91.20
2024;DHT22;1016;48.770;9.154;2022-08-07T07:14:51;21.60;91.30
2024;DHT22;1016;48.770;9.154;2022-08-07T07:17:46;21.70;91.40
2024;DHT22;1016;48.770;9.154;2022-08-07T07:20:12;21.70;91.90
2024;DHT22;1016;48.770;9.154;2022-08-07T07:22:40;21.80;91.70
2024;DHT22;1016;48.770;9.154;2022-08-07T07:25:10;21.90;91.80
2024;DHT22;1016;48.770;9.154;2022-08-07T07:27:40;22.00;91.80
2024;DHT22;1016;48.770;9.154;2022-08-07T07:30:07;22.10;91.80
2024;DHT22;1016;48.770;9.154;2022-08-07T07:32:35;22.20;91.80
2024;DHT22;1016;48.770;9.154;2022-08-07T07:35:03;22.20;91.80
2024;DHT22;1016;48.770;9.154;2022-08-07T07:37:29;22.30;91.90
2024;DHT22;1016;48.770;9.154;2022-08-07T07:40:00;22.30;92.10
2024;DHT22;1016;48.770;9.154;2022-08-07T07:42:27;22.40;92.20
2024;DHT22;1016;48.770;9.154;2022-08-07T07:44:53;22.40;92.00
2024;DHT22;1016;48.770;9.154;2022-08-07T07:47:22;22.50;92.00
2024;DHT22;1016;48.770;9.154;2022-08-07T07:49:51;22.50;91.80
2024;DHT22;1016;48.770;9.154;2022-08-07T07:52:17;22.60;91.80
2024;DHT22;1016;48.770;9.154;2022-08-07T07:54:45;22.70;91.50
2024;DHT22;1016;48.770;9.154;2022-08-07T07:57:11;22.70;91.00
2024;DHT22;1016;48.770;9.154;2022-08-07T07:59:39;22.70;90.90
2024;DHT22;1016;48.770;9.154;2022-08-07T08:02:05;22.80;91.10
2024;DHT22;1016;48.770;9.154;2022-08-07T08:04:32;22.80;90.70
2024;DHT22;1016;48.770;9.154;2022-08-07T08:07:00;22.90;90.40
2024;DHT22;1016;48.770;9.154;2022-08-07T08:09:27;22.90;90.50
2024;DHT22;1016;48.770;9.154;2022-08-07T08:11:54;23.00;89.50
2024;DHT22;1016;48.770;9.154;2022-08-07T08:14:21;23.10;88.80
2024;DHT22;1016;48.770;9.154;2022-08-07T08:16:48;23.20;87.60
2024;DHT22;1016;48.770;9.154;2022-08-07T08:19:17;23.30;83.50
2024;DHT22;1016;48.770;9.154;2022-08-07T08:21:48;23.40;83.90
2024;DHT22;1016;48.770;9.154;2022-08-07T08:24:40;23.50;82.90
2024;DHT22;1016;48.770;9.154;2022-08-07T08:27:28;23.60;78.10
2024;DHT22;1016;48.770;9.154;2022-08-07T08:30:02;23.60;77.20
2024;DHT22;1016;48.770;9.154;2022-08-07T08:32:31;23.70;76.90
2024;DHT22;1016;48.770;9.154;2022-08-07T08:34:58;23.60;77.50
2024;DHT22;1016;48.770;9.154;2022-08-07T08:37:28;23.70;76.40
2024;DHT22;1016;48.770;9.154;2022-08-07T08:39:54;23.70;76.90
2024;DHT22;1016;48.770;9.154;2022-08-07T08:42:32;23.70;76.70
2024;DHT22;1016;48.770;9.154;2022-08-07T08:48:29;23.80;76.80
2024;DHT22;1016;48.770;9.154;2022-08-07T08:53:40;23.90;73.80
2024;DHT22;1016;48.770;9.154;2022-08-07T08:56:18;23.90;73.30
2024;DHT22;1016;48.770;9.154;2022-08-07T08:58:58;24.00;71.30
2024;DHT22;1016;48.770;9.154;2022-08-07T09:01:43;24.00;70.80
2024;DHT22;1016;48.770;9.154;2022-08-07T09:04:25;24.00;69.90
2024;DHT22;1016;48.770;9.154;2022-08-07T09:09:57;23.90;69.20
2024;DHT22;1016;48.770;9.154;2022-08-07T09:15:30;23.80;66.10
2024;DHT22;1016;48.770;9.154;2022-08-07T09:20:58;23.80;64.20
2024;DHT22;1016;48.770;9.154;2022-08-07T09:26:23;23.90;65.20
2024;DHT22;1016;48.770;9.154;2022-08-07T09:28:53;24.00;64.40
2024;DHT22;1016;48.770;9.154;2022-08-07T09:36:50;24.30;63.90
2024;DHT22;1016;48.770;9.154;2022-08-07T09:39:44;24.30;64.30
2024;DHT22;1016;48.770;9.154;2022-08-07T09:53:25;24.70;63.60
2024;DHT22;1016;48.770;9.154;2022-08-07T10:04:32;24.90;59.90
2024;DHT22;1016;48.770;9.154;2022-08-07T10:26:06;24.90;56.80
2024;DHT22;1016;48.770;9.154;2022-08-07T10:31:37;25.10;56.00
2024;DHT22;1016;48.770;9.154;2022-08-07T10:34:34;25.00;55.20
2024;DHT22;1016;48.770;9.154;2022-08-07T10:37:44;25.00;55.60
2024;DHT22;1016;48.770;9.154;2022-08-07T10:40:13;24.90;56.00
2024;DHT22;1016;48.770;9.154;2022-08-07T10:43:01;25.10;56.60
2024;DHT22;1016;48.770;9.154;2022-08-07T10:45:49;25.10;55.20
2024;DHT22;1016;48.770;9.154;2022-08-07T10:48:35;25.10;55.50
2024;DHT22;1016;48.770;9.154;2022-08-07T10:51:13;25.20;55.10
2024;DHT22;1016;48.770;9.154;2022-08-07T10:54:12;25.20;56.10
2024;DHT22;1016;48.770;9.154;2022-08-07T10:57:07;25.20;56.20
2024;DHT22;1016;48.770;9.154;2022-08-07T11:00:02;25.30;55.50
2024;DHT22;1016;48.770;9.154;2022-08-07T11:02:49;25.30;55.10
2024;DHT22;1016;48.770;9.154;2022-08-07T11:05:30;25.40;55.60
2024;DHT22;1016;48.770;9.154;2022-08-07T11:10:47;25.60;55.90
2024;DHT22;1016;48.770;9.154;2022-08-07T11:15:47;25.60;55.60
2024;DHT22;1016;48.770;9.154;2022-08-07T11:18:36;25.70;55.30
2024;DHT22;1016;48.770;9.154;2022-08-07T11:21:10;25.70;56.30
2024;DHT22;1016;48.770;9.154;2022-08-07T11:24:01;25.70;55.60
2024;DHT22;1016;48.770;9.154;2022-08-07T11:26:53;25.80;56.20
2024;DHT22;1016;48.770;9.154;2022-08-07T11:29:40;25.70;55.90
2024;DHT22;1016;48.770;9.154;2022-08-07T11:32:15;25.60;55.30
2024;DHT22;1016;48.770;9.154;2022-08-07T11:34:56;25.70;55.50
2024;DHT22;1016;48.770;9.154;2022-08-07T11:37:46;25.70;55.70
2024;DHT22;1016;48.770;9.154;2022-08-07T11:43:06;25.80;55.90
2024;DHT22;1016;48.770;9.154;2022-08-07T11:56:26;26.00;55.40
2024;DHT22;1016;48.770;9.154;2022-08-07T12:01:55;26.10;55.30
2024;DHT22;1016;48.770;9.154;2022-08-07T12:07:18;26.20;55.50
2024;DHT22;1016;48.770;9.154;2022-08-07T12:09:50;26.30;70.20
2024;DHT22;1016;48.770;9.154;2022-08-07T12:12:27;26.30;54.80
2024;DHT22;1016;48.770;9.154;2022-08-07T12:15:12;26.30;54.60
2024;DHT22;1016;48.770;9.154;2022-08-07T12:17:44;26.40;72.60
2024;DHT22;1016;48.770;9.154;2022-08-07T12:20:41;26.50;76.90
2024;DHT22;1016;48.770;9.154;2022-08-07T12:29:22;26.30;75.50
2024;DHT22;1016;48.770;9.154;2022-08-07T12:34:40;26.40;67.30
2024;DHT22;1016;48.770;9.154;2022-08-07T12:37:09;26.40;65.70
2024;DHT22;1016;48.770;9.154;2022-08-07T12:39:39;26.40;65.40
2024;DHT22;1016;48.770;9.154;2022-08-07T12:42:06;26.50;63.10
2024;DHT22;1016;48.770;9.154;2022-08-07T12:44:34;26.50;63.20
2024;DHT22;1016;48.770;9.154;2022-08-07T12:49:52;26.60;62.50
2024;DHT22;1016;48.770;9.154;2022-08-07T12:55:04;26.70;67.40
2024;DHT22;1016;48.770;9.154;2022-08-07T12:57:33;26.70;67.60
2024;DHT22;1016;48.770;9.154;2022-08-07T13:00:03;26.90;68.90
2024;DHT22;1016;48.770;9.154;2022-08-07T13:03:02;26.90;67.30
2024;DHT22;1016;48.770;9.154;2022-08-07T13:09:00;26.90;67.00
2024;DHT22;1016;48.770;9.154;2022-08-07T13:11:52;26.90;67.80
2024;DHT22;1016;48.770;9.154;2022-08-07T13:19:53;26.90;68.60
2024;DHT22;1016;48.770;9.154;2022-08-07T13:22:25;26.90;67.80
2024;DHT22;1016;48.770;9.154;2022-08-07T13:25:28;26.80;67.30
2024;DHT22;1016;48.770;9.154;2022-08-07T13:28:03;26.90;69.50
2024;DHT22;1016;48.770;9.154;2022-08-07T13:30:30;26.90;71.50
2024;DHT22;1016;48.770;9.154;2022-08-07T13:33:10;27.00;71.90
2024;DHT22;1016;48.770;9.154;2022-08-07T13:45:54;27.80;57.20
2024;DHT22;1016;48.770;9.154;2022-08-07T13:50:49;29.30;50.90
2024;DHT22;1016;48.770;9.154;2022-08-07T13:53:30;29.30;50.80
2024;DHT22;1016;48.770;9.154;2022-08-07T13:55:58;29.00;50.50
2024;DHT22;1016;48.770;9.154;2022-08-07T13:58:24;28.90;50.70
2024;DHT22;1016;48.770;9.154;2022-08-07T14:01:15;29.00;51.00
2024;DHT22;1016;48.770;9.154;2022-08-07T14:03:42;29.90;50.20
2024;DHT22;1016;48.770;9.154;2022-08-07T14:06:09;31.20;49.10
2024;DHT22;1016;48.770;9.154;2022-08-07T14:08:42;32.00;49.20
2024;DHT22;1016;48.770;9.154;2022-08-07T14:16:08;40.70;41.20
2024;DHT22;1016;48.770;9.154;2022-08-07T14:18:46;41.40;38.90
2024;DHT22;1016;48.770;9.154;2022-08-07T14:21:17;41.20;37.00
2024;DHT22;1016;48.770;9.154;2022-08-07T14:23:53;43.70;34.20
2024;DHT22;1016;48.770;9.154;2022-08-07T14:28:48;45.00;32.40
2024;DHT22;1016;48.770;9.154;2022-08-07T14:31:15;45.70;31.80
2024;DHT22;1016;48.770;9.154;2022-08-07T14:33:41;45.90;30.50
2024;DHT22;1016;48.770;9.154;2022-08-07T14:36:08;45.00;29.60
2024;DHT22;1016;48.770;9.154;2022-08-07T14:38:36;43.40;29.70
2024;DHT22;1016;48.770;9.154;2022-08-07T14:41:05;41.70;29.80
2024;DHT22;1016;48.770;9.154;2022-08-07T14:43:33;40.00;30.30
2024;DHT22;1016;48.770;9.154;2022-08-07T14:45:59;38.10;31.20
2024;DHT22;1016;48.770;9.154;2022-08-07T14:48:29;36.50;32.20
2024;DHT22;1016;48.770;9.154;2022-08-07T14:50:57;35.60;32.90
2024;DHT22;1016;48.770;9.154;2022-08-07T14:53:25;34.90;34.10
2024;DHT22;1016;48.770;9.154;2022-08-07T14:55:52;34.10;34.20
2024;DHT22;1016;48.770;9.154;2022-08-07T14:58:26;33.60;34.70
2024;DHT22;1016;48.770;9.154;2022-08-07T15:00:53;33.10;35.10
2024;DHT22;1016;48.770;9.154;2022-08-07T15:03:26;32.60;35.60
2024;DHT22;1016;48.770;9.154;2022-08-07T15:05:53;32.20;36.20
2024;DHT22;1016;48.770;9.154;2022-08-07T15:08:23;32.00;36.70
2024;DHT22;1016;48.770;9.154;2022-08-07T15:10:56;31.90;37.00
2024;DHT22;1016;48.770;9.154;2022-08-07T15:13:24;31.70;37.10
2024;DHT22;1016;48.770;9.154;2022-08-07T15:15:55;31.40;38.20
2024;DHT22;1016;48.770;9.154;2022-08-07T15:18:34;31.20;38.90
2024;DHT22;1016;48.770;9.154;2022-08-07T15:21:24;30.70;38.00
2024;DHT22;1016;48.770;9.154;2022-08-07T15:23:49;30.60;38.10
2024;DHT22;1016;48.770;9.154;2022-08-07T15:26:22;30.50;39.20
2024;DHT22;1016;48.770;9.154;2022-08-07T15:28:55;30.30;40.10
2024;DHT22;1016;48.770;9.154;2022-08-07T15:31:22;30.00;39.00
2024;DHT22;1016;48.770;9.154;2022-08-07T15:33:49;29.80;39.30
2024;DHT22;1016;48.770;9.154;2022-08-07T15:36:21;29.70;39.50
2024;DHT22;1016;48.770;9.154;2022-08-07T15:38:48;29.50;39.70
2024;DHT22;1016;48.770;9.154;2022-08-07T15:41:16;29.40;40.00
2024;DHT22;1016;48.770;9.154;2022-08-07T15:43:58;29.40;40.80
2024;DHT22;1016;48.770;9.154;2022-08-07T15:46:25;29.40;40.50
2024;DHT22;1016;48.770;9.154;2022-08-07T15:48:53;29.40;41.30
2024;DHT22;1016;48.770;9.154;2022-08-07T15:51:20;29.40;40.90
2024;DHT22;1016;48.770;9.154;2022-08-07T15:53:53;29.30;40.60
2024;DHT22;1016;48.770;9.154;2022-08-07T15:56:37;29.10;40.60
2024;DHT22;1016;48.770;9.154;2022-08-07T15:59:06;29.00;41.80
2024;DHT22;1016;48.770;9.154;2022-08-07T16:01:39;28.90;41.60
2024;DHT22;1016;48.770;9.154;2022-08-07T16:04:11;28.70;41.50
2024;DHT22;1016;48.770;9.154;2022-08-07T16:06:51;28.70;41.30
2024;DHT22;1016;48.770;9.154;2022-08-07T16:09:29;28.70;42.50
2024;DHT22;1016;48.770;9.154;2022-08-07T16:12:12;28.70;41.60
2024;DHT22;1016;48.770;9.154;2022-08-07T16:20:16;28.40;41.60
2024;DHT22;1016;48.770;9.154;2022-08-07T16:23:00;28.50;41.60
2024;DHT22;1016;48.770;9.154;2022-08-07T16:26:05;28.30;41.80
2024;DHT22;1016;48.770;9.154;2022-08-07T16:31:31;28.20;42.10
2024;DHT22;1016;48.770;9.154;2022-08-07T16:34:04;28.20;41.80
2024;DHT22;1016;48.770;9.154;2022-08-07T16:39:20;28.00;42.20
2024;DHT22;1016;48.770;9.154;2022-08-07T16:45:02;28.00;42.30
2024;DHT22;1016;48.770;9.154;2022-08-07T16:47:39;27.90;42.50
2024;DHT22;1016;48.770;9.154;2022-08-07T16:58:54;27.50;42.90
2024;DHT22;1016;48.770;9.154;2022-08-07T17:01:50;27.40;43.10
2024;DHT22;1016;48.770;9.154;2022-08-07T17:04:29;27.50;43.00
2024;DHT22;1016;48.770;9.154;2022-08-07T17:09:52;27.40;42.80
2024;DHT22;1016;48.770;9.154;2022-08-07T17:12:42;27.30;43.00
2024;DHT22;1016;48.770;9.154;2022-08-07T17:25:55;27.30;42.80
2024;DHT22;1016;48.770;9.154;2022-08-07T17:28:36;27.30;42.40
2024;DHT22;1016;48.770;9.154;2022-08-07T17:31:14;27.30;42.40
2024;DHT22;1016;48.770;9.154;2022-08-07T17:33:50;27.30;42.70
2024;DHT22;1016;48.770;9.154;2022-08-07T17:36:29;27.10;42.90
2024;DHT22;1016;48.770;9.154;2022-08-07T17:42:00;27.20;42.60
2024;DHT22;1016;48.770;9.154;2022-08-07T17:44:35;27.20;41.80
2024;DHT22;1016;48.770;9.154;2022-08-07T17:49:59;27.00;42.10
2024;DHT22;1016;48.770;9.154;2022-08-07T17:52:36;27.00;42.20
2024;DHT22;1016;48.770;9.154;2022-08-07T17:55:13;27.00;42.70
2024;DHT22;1016;48.770;9.154;2022-08-07T17:57:49;26.90;42.50
2024;DHT22;1016;48.770;9.154;2022-08-07T18:00:19;26.90;42.40
2024;DHT22;1016;48.770;9.154;2022-08-07T18:02:53;26.80;42.10
2024;DHT22;1016;48.770;9.154;2022-08-07T18:05:33;26.80;42.60
2024;DHT22;1016;48.770;9.154;2022-08-07T18:10:57;26.70;42.40
2024;DHT22;1016;48.770;9.154;2022-08-07T18:16:29;26.80;41.70
2024;DHT22;1016;48.770;9.154;2022-08-07T18:19:11;26.70;41.90
2024;DHT22;1016;48.770;9.154;2022-08-07T18:21:43;26.70;41.70
2024;DHT22;1016;48.770;9.154;2022-08-07T18:24:41;26.60;41.80
2024;DHT22;1016;48.770;9.154;2022-08-07T18:30:04;26.50;41.80
2024;DHT22;1016;48.770;9.154;2022-08-07T18:35:32;26.50;41.20
2024;DHT22;1016;48.770;9.154;2022-08-07T18:38:23;26.40;41.40
2024;DHT22;1016;48.770;9.154;2022-08-07T18:41:16;26.30;41.60
2024;DHT22;1016;48.770;9.154;2022-08-07T18:44:24;26.30;41.80
2024;DHT22;1016;48.770;9.154;2022-08-07T18:47:10;26.20;41.90
2024;DHT22;1016;48.770;9.154;2022-08-07T18:49:51;26.10;41.80
2024;DHT22;1016;48.770;9.154;2022-08-07T18:52:37;26.10;41.90
2024;DHT22;1016;48.770;9.154;2022-08-07T18:55:36;26.10;41.90
2024;DHT22;1016;48.770;9.154;2022-08-07T19:00:48;26.00;42.20
2024;DHT22;1016;48.770;9.154;2022-08-07T19:03:24;25.90;42.20
2024;DHT22;1016;48.770;9.154;2022-08-07T19:05:59;25.90;42.00
2024;DHT22;1016;48.770;9.154;2022-08-07T19:11:16;25.80;42.30
2024;DHT22;1016;48.770;9.154;2022-08-07T19:22:02;25.70;42.70
2024;DHT22;1016;48.770;9.154;2022-08-07T19:24:46;25.60;42.80
2024;DHT22;1016;48.770;9.154;2022-08-07T19:27:18;25.50;42.80
2024;DHT22;1016;48.770;9.154;2022-08-07T19:29:48;25.50;42.90
2024;DHT22;1016;48.770;9.154;2022-08-07T19:32:17;25.40;43.10
2024;DHT22;1016;48.770;9.154;2022-08-07T19:34:48;25.30;43.20
2024;DHT22;1016;48.770;9.154;2022-08-07T19:37:18;25.30;43.30
2024;DHT22;1016;48.770;9.154;2022-08-07T19:39:58;25.20;43.40
2024;DHT22;1016;48.770;9.154;2022-08-07T19:42:26;25.20;43.50
2024;DHT22;1016;48.770;9.154;2022-08-07T19:44:53;25.10;43.60
2024;DHT22;1016;48.770;9.154;2022-08-07T19:47:27;25.00;43.70
2024;DHT22;1016;48.770;9.154;2022-08-07T19:49:53;25.00;43.90
2024;DHT22;1016;48.770;9.154;2022-08-07T19:52:24;24.90;44.10
2024;DHT22;1016;48.770;9.154;2022-08-07T19:54:50;24.80;44.10
2024;DHT22;1016;48.770;9.154;2022-08-07T19:57:29;24.80;44.30
2024;DHT22;1016;48.770;9.154;2022-08-07T20:00:13;24.70;44.60
2024;DHT22;1016;48.770;9.154;2022-08-07T20:02:46;24.70;44.80
2024;DHT22;1016;48.770;9.154;2022-08-07T20:05:18;24.60;45.00
2024;DHT22;1016;48.770;9.154;2022-08-07T20:07:46;24.50;45.20